Time;durP1;ratioP1;P1;durP2;ratioP2;P2;SDS_P1;SDS_P2;PMS_P1;PMS_P2;Temp;Humidity;BMP_temperature;BMP_pressure;BME280_temperature;BME280_humidity;BME280_pressure;Samples;Min_cycle;Max_cycle;Signal;HPM_P1;HPM_P2
2021/05/26 00:00:20;;;;;;;7.60;2.55;;;17.00;56.90;;;;;;5074420;28;20067;-60
2021/05/26 00:02:45;;;;;;;6.10;3.15;;;17.00;56.80;;;;;;5067496;28;20028;-60
2021/05/26 00:05:11;;;;;;;5.28;3.10;;;16.90;57.00;;;;;;5068742;28;20044;-61
2021/05/26 00:07:37;;;;;;;5.82;3.00;;;16.90;57.00;;;;;;5074950;28;20066;-61
2021/05/26 00:10:03;;;;;;;7.53;3.92;;;16.90;57.10;;;;;;5073894;28;20028;-61
2021/05/26 00:12:29;;;;;;;6.75;3.63;;;16.90;57.30;;;;;;5079828;28;20509;-60
2021/05/26 00:14:54;;;;;;;8.43;4.07;;;16.80;57.30;;;;;;5055209;28;20025;-61
2021/05/26 00:17:20;;;;;;;5.72;3.65;;;16.80;57.30;;;;;;5076463;28;20040;-60
2021/05/26 00:19:45;;;;;;;4.50;3.30;;;16.80;57.50;;;;;;5057621;28;20028;-60
2021/05/26 00:22:11;;;;;;;7.95;3.10;;;16.80;57.50;;;;;;5051564;28;20059;-61
2021/05/26 00:24:36;;;;;;;6.20;3.35;;;16.80;57.50;;;;;;5037837;28;20055;-60
2021/05/26 00:27:02;;;;;;;7.55;3.03;;;16.70;57.50;;;;;;5075640;28;20039;-61
2021/05/26 00:29:28;;;;;;;4.50;2.97;;;16.70;57.50;;;;;;5072476;28;20380;-60
2021/05/26 00:31:53;;;;;;;6.43;3.75;;;16.70;57.60;;;;;;5054233;28;20491;-61
2021/05/26 00:34:19;;;;;;;8.85;3.17;;;16.60;57.70;;;;;;5051367;28;20036;-60
2021/05/26 00:36:44;;;;;;;4.45;2.72;;;16.60;57.90;;;;;;5073236;28;20120;-60
2021/05/26 00:39:10;;;;;;;8.18;3.20;;;16.60;57.90;;;;;;5056901;28;20040;-60
2021/05/26 00:41:35;;;;;;;4.80;3.20;;;16.60;57.90;;;;;;5048791;28;20515;-61
2021/05/26 00:44:01;;;;;;;6.05;3.25;;;16.60;58.00;;;;;;5037653;28;20032;-61
2021/05/26 00:46:26;;;;;;;9.25;3.45;;;16.60;58.00;;;;;;5047682;28;20471;-61
2021/05/26 00:48:52;;;;;;;5.07;3.20;;;16.50;57.90;;;;;;5027071;28;20033;-61
2021/05/26 00:51:17;;;;;;;5.03;3.10;;;16.50;58.00;;;;;;5076956;28;20035;-60
2021/05/26 00:53:43;;;;;;;4.38;3.22;;;16.50;58.10;;;;;;5060799;28;20040;-60
2021/05/26 00:56:08;;;;;;;4.35;3.10;;;16.50;58.10;;;;;;5044699;28;20099;-60
2021/05/26 00:58:34;;;;;;;5.57;3.60;;;16.50;58.20;;;;;;5059684;28;20203;-60
2021/05/26 01:01:00;;;;;;;9.70;3.53;;;16.40;58.20;;;;;;5054775;28;20032;-60
2021/05/26 01:03:26;;;;;;;4.45;3.47;;;16.50;58.40;;;;;;5045150;28;20544;-60
2021/05/26 01:05:52;;;;;;;6.60;3.25;;;16.40;58.30;;;;;;5073632;28;20081;-61
2021/05/26 01:08:17;;;;;;;4.93;3.13;;;16.40;58.40;;;;;;5043026;28;20138;-61
2021/05/26 01:10:43;;;;;;;9.45;3.30;;;16.40;58.40;;;;;;5068633;28;20145;-60
2021/05/26 01:13:09;;;;;;;5.88;3.28;;;16.40;58.50;;;;;;5045527;28;20106;-61
2021/05/26 01:15:35;;;;;;;4.88;3.30;;;16.30;58.50;;;;;;5047006;28;20031;-60
2021/05/26 01:18:22;;;;;;;5.53;3.22;;;16.30;58.60;;;;;;5061676;28;20037;-61
2021/05/26 01:20:48;;;;;;;6.00;3.65;;;16.30;58.60;;;;;;5068364;28;20032;-60
2021/05/26 01:23:16;;;;;;;4.70;3.25;;;16.30;58.70;;;;;;5045284;28;20121;-61
2021/05/26 01:25:46;;;;;;;7.20;2.72;;;16.30;58.70;;;;;;5050968;28;20039;-60
2021/05/26 01:28:11;;;;;;;7.50;3.05;;;16.30;59.40;;;;;;5044470;28;20587;-61
2021/05/26 01:30:37;;;;;;;8.52;3.10;;;16.20;58.80;;;;;;5062908;28;20128;-60
2021/05/26 01:33:03;;;;;;;5.95;3.22;;;16.20;58.80;;;;;;5073430;28;20507;-61
2021/05/26 01:35:28;;;;;;;3.63;2.88;;;16.20;58.90;;;;;;5044663;28;20035;-60
2021/05/26 01:37:54;;;;;;;5.15;2.75;;;16.20;58.90;;;;;;5066875;28;20024;-60
2021/05/26 01:40:19;;;;;;;4.82;3.20;;;16.10;59.00;;;;;;5072512;28;20552;-61
2021/05/26 01:42:45;;;;;;;4.82;2.90;;;16.10;59.10;;;;;;5066668;28;20036;-60
2021/05/26 01:45:12;;;;;;;7.82;2.88;;;16.10;59.20;;;;;;5069100;28;20024;-61
2021/05/26 01:47:38;;;;;;;3.95;2.72;;;16.10;59.20;;;;;;5060511;28;20024;-61
2021/05/26 01:50:05;;;;;;;5.45;3.00;;;16.10;59.20;;;;;;5070062;28;20037;-61
2021/05/26 01:52:31;;;;;;;4.25;2.70;;;16.10;59.20;;;;;;5064545;28;20032;-60
2021/05/26 01:54:56;;;;;;;6.68;3.33;;;16.10;59.30;;;;;;5073601;28;20028;-61
2021/05/26 01:57:22;;;;;;;3.58;2.50;;;16.00;59.20;;;;;;5071490;28;20375;-60
2021/05/26 01:59:47;;;;;;;4.07;2.50;;;16.00;59.30;;;;;;5072792;28;20024;-60
2021/05/26 02:02:13;;;;;;;3.53;2.53;;;16.00;59.20;;;;;;5070916;28;20177;-60
2021/05/26 02:04:38;;;;;;;3.80;2.60;;;16.00;59.30;;;;;;5074525;28;20040;-60
2021/05/26 02:07:07;;;;;;;5.28;2.78;;;16.00;59.40;;;;;;5074246;28;20025;-60
2021/05/26 02:09:33;;;;;;;7.65;2.63;;;16.00;59.40;;;;;;5054247;28;20108;-61
2021/05/26 02:14:43;;;;;;;4.00;2.47;;;16.00;59.50;;;;;;5058757;28;20080;-60
2021/05/26 02:17:08;;;;;;;4.80;2.22;;;16.00;59.50;;;;;;5075307;28;20029;-61
2021/05/26 02:19:34;;;;;;;3.40;2.33;;;15.90;59.50;;;;;;5074135;28;20029;-61
2021/05/26 02:21:59;;;;;;;4.60;2.30;;;15.90;59.50;;;;;;5054990;28;20051;-61
2021/05/26 02:24:25;;;;;;;4.63;2.40;;;15.90;59.60;;;;;;5075830;28;20074;-60
2021/05/26 02:26:51;;;;;;;3.00;1.92;;;15.90;59.70;;;;;;5074758;28;20104;-61
2021/05/26 02:29:16;;;;;;;3.95;2.47;;;15.90;59.60;;;;;;5054645;28;20082;-61
2021/05/26 02:31:42;;;;;;;5.50;2.20;;;15.90;59.70;;;;;;5076217;28;20033;-61
2021/05/26 02:34:07;;;;;;;4.10;2.45;;;15.90;59.70;;;;;;5077324;28;20512;-60
2021/05/26 02:36:33;;;;;;;2.25;1.73;;;15.80;59.80;;;;;;5076218;28;20480;-60
2021/05/26 02:38:58;;;;;;;4.25;2.35;;;15.80;59.80;;;;;;5042137;28;20029;-60
2021/05/26 02:41:24;;;;;;;4.13;2.10;;;15.70;59.80;;;;;;5080303;28;20040;-61
2021/05/26 02:43:49;;;;;;;3.03;1.88;;;15.80;59.90;;;;;;5072614;28;20056;-61
2021/05/26 02:46:15;;;;;;;2.92;1.90;;;15.80;59.90;;;;;;5069210;28;20032;-62
2021/05/26 02:48:40;;;;;;;3.88;2.03;;;15.80;60.00;;;;;;5068349;28;20032;-61
2021/05/26 02:51:06;;;;;;;3.85;2.13;;;15.70;59.90;;;;;;5074722;28;20139;-61
2021/05/26 02:53:31;;;;;;;2.95;1.92;;;15.80;60.00;;;;;;5075978;28;20583;-60
2021/05/26 02:55:57;;;;;;;3.65;2.05;;;15.80;60.00;;;;;;5072570;28;20047;-61
2021/05/26 02:58:22;;;;;;;3.45;2.00;;;15.80;60.00;;;;;;5078218;28;20396;-61
2021/05/26 03:00:48;;;;;;;3.88;2.08;;;15.80;60.00;;;;;;5062460;28;20025;-61
2021/05/26 03:03:13;;;;;;;4.55;1.85;;;15.80;60.10;;;;;;5073203;28;20036;-61
2021/05/26 03:05:39;;;;;;;2.83;2.05;;;15.70;60.00;;;;;;5062999;28;20574;-61
2021/05/26 03:08:05;;;;;;;2.30;1.58;;;15.70;60.10;;;;;;5074134;28;20457;-61
2021/05/26 03:10:30;;;;;;;2.78;2.13;;;15.70;60.10;;;;;;5068434;28;20028;-61
2021/05/26 03:12:56;;;;;;;2.85;2.30;;;15.70;60.20;;;;;;5061515;28;20047;-61
2021/05/26 03:15:21;;;;;;;4.57;2.22;;;15.70;60.30;;;;;;5072122;28;20025;-61
2021/05/26 03:17:47;;;;;;;7.30;2.28;;;15.60;60.30;;;;;;5066231;28;20025;-61
2021/05/26 03:20:14;;;;;;;4.85;2.38;;;15.70;60.30;;;;;;5058100;28;20035;-61
2021/05/26 03:22:40;;;;;;;3.05;2.13;;;15.60;60.30;;;;;;5048795;28;20353;-61
2021/05/26 03:25:07;;;;;;;2.95;2.03;;;15.60;60.40;;;;;;5077348;28;20034;-61
2021/05/26 03:27:36;;;;;;;3.08;2.28;;;15.60;60.40;;;;;;5030264;28;20032;-61
2021/05/26 03:30:09;;;;;;;3.40;2.20;;;15.60;60.30;;;;;;5060107;28;20016;-62
2021/05/26 03:32:34;;;;;;;3.63;2.28;;;15.60;60.30;;;;;;5072788;28;20119;-61
2021/05/26 03:35:00;;;;;;;5.80;3.10;;;15.60;60.40;;;;;;5067300;28;20160;-60
2021/05/26 03:37:26;;;;;;;3.47;2.35;;;15.60;60.40;;;;;;5045889;28;20113;-61
2021/05/26 03:39:52;;;;;;;2.67;2.20;;;15.60;60.40;;;;;;5069342;28;20031;-61
2021/05/26 03:42:17;;;;;;;3.40;2.33;;;15.60;60.40;;;;;;5072566;28;20024;-61
2021/05/26 03:44:43;;;;;;;4.65;2.60;;;15.60;60.40;;;;;;5069621;28;20032;-61
2021/05/26 03:47:09;;;;;;;3.05;2.50;;;15.60;60.40;;;;;;5081524;28;20032;-61
2021/05/26 03:49:34;;;;;;;4.25;2.20;;;15.50;60.40;;;;;;5072832;28;20040;-61
2021/05/26 03:52:00;;;;;;;4.32;2.90;;;15.50;60.40;;;;;;5072026;28;20070;-61
2021/05/26 03:54:25;;;;;;;4.22;2.38;;;15.50;60.50;;;;;;5073585;28;20078;-61
2021/05/26 03:56:51;;;;;;;3.33;2.50;;;15.50;60.50;;;;;;5044584;28;20057;-61
2021/05/26 03:59:16;;;;;;;3.00;2.25;;;15.50;60.60;;;;;;5067480;28;20034;-61
2021/05/26 04:01:42;;;;;;;2.90;2.08;;;15.50;60.60;;;;;;5064769;28;20480;-62
2021/05/26 04:04:07;;;;;;;2.65;2.17;;;15.50;60.50;;;;;;5075218;28;20028;-61
2021/05/26 04:06:34;;;;;;;3.03;1.90;;;15.50;60.60;;;;;;5075079;28;20163;-60
2021/05/26 04:08:59;;;;;;;3.55;1.80;;;15.50;60.50;;;;;;5058887;28;20035;-61
2021/05/26 04:11:25;;;;;;;3.60;2.20;;;15.50;60.70;;;;;;5059469;28;20024;-61
2021/05/26 04:13:50;;;;;;;39.55;7.25;;;15.50;60.70;;;;;;5080481;28;20037;-61
2021/05/26 04:16:16;;;;;;;37.83;6.25;;;15.50;60.70;;;;;;5053342;28;20020;-61
2021/05/26 04:18:41;;;;;;;43.70;6.28;;;15.50;60.70;;;;;;5073253;28;20038;-61
2021/05/26 04:21:07;;;;;;;47.38;6.00;;;15.50;60.70;;;;;;5070256;28;20439;-61
2021/05/26 04:23:32;;;;;;;41.97;5.72;;;15.50;60.70;;;;;;5077213;28;20036;-60
2021/05/26 04:25:59;;;;;;;28.90;5.43;;;15.40;61.50;;;;;;5069413;28;20053;-61
2021/05/26 04:28:25;;;;;;;30.17;4.70;;;15.50;61.00;;;;;;5075621;28;20099;-60
2021/05/26 04:30:50;;;;;;;23.88;4.65;;;15.50;60.90;;;;;;5072280;28;20119;-61
2021/05/26 04:33:16;;;;;;;35.95;5.47;;;15.40;61.00;;;;;;5056370;28;20028;-60
2021/05/26 04:35:43;;;;;;;37.45;5.07;;;15.40;60.80;;;;;;5058322;28;20016;-61
2021/05/26 04:38:08;;;;;;;38.63;4.47;;;15.40;60.90;;;;;;5074126;28;20115;-61
2021/05/26 04:40:34;;;;;;;66.25;5.78;;;15.40;61.00;;;;;;5066896;28;20115;-61
2021/05/26 04:42:59;;;;;;;103.15;8.00;;;15.40;61.00;;;;;;5052730;28;20048;-61
2021/05/26 04:45:25;;;;;;;169.82;14.57;;;15.40;61.10;;;;;;5073262;28;20032;-61
2021/05/26 04:47:50;;;;;;;89.13;9.43;;;15.40;61.20;;;;;;5047661;28;20137;-61
2021/05/26 04:50:16;;;;;;;102.22;9.27;;;15.40;61.30;;;;;;5079343;28;20031;-62
2021/05/26 04:52:41;;;;;;;102.20;9.45;;;15.40;61.50;;;;;;5074846;28;20475;-61
2021/05/26 04:55:07;;;;;;;133.27;11.52;;;15.40;61.50;;;;;;5056368;28;20609;-61
2021/05/26 04:57:33;;;;;;;375.85;27.90;;;15.40;61.50;;;;;;5063800;28;20036;-61
2021/05/26 04:59:58;;;;;;;196.13;14.98;;;15.40;61.40;;;;;;5055194;28;20029;-61
2021/05/26 05:02:24;;;;;;;446.42;33.58;;;15.40;61.50;;;;;;5073499;28;20043;-61
2021/05/26 05:04:49;;;;;;;654.13;55.25;;;15.40;61.50;;;;;;5072517;28;20542;-61
2021/05/26 05:07:15;;;;;;;423.40;34.70;;;15.40;61.50;;;;;;5075430;28;20028;-61
2021/05/26 05:09:40;;;;;;;271.42;23.60;;;15.40;61.50;;;;;;5061510;28;20033;-61
2021/05/26 05:12:06;;;;;;;232.15;21.35;;;15.40;61.50;;;;;;5076975;28;20056;-61
2021/05/26 05:14:32;;;;;;;190.70;16.50;;;15.40;61.50;;;;;;5073965;28;20038;-61
2021/05/26 05:16:57;;;;;;;161.27;17.17;;;15.40;61.40;;;;;;5075513;28;20024;-61
2021/05/26 05:19:23;;;;;;;218.32;17.80;;;15.50;61.50;;;;;;5079024;28;20114;-61
2021/05/26 05:21:48;;;;;;;159.85;15.30;;;15.50;61.40;;;;;;5074198;28;20163;-61
2021/05/26 05:24:14;;;;;;;164.98;14.45;;;15.50;61.40;;;;;;5063939;28;20492;-61
2021/05/26 05:26:39;;;;;;;161.73;15.05;;;15.50;61.50;;;;;;5064958;28;20025;-61
2021/05/26 05:29:05;;;;;;;135.02;12.85;;;15.40;61.50;;;;;;5050407;28;20388;-61
2021/05/26 05:31:31;;;;;;;145.85;14.05;;;15.40;61.70;;;;;;5064491;28;20465;-61
2021/05/26 05:33:57;;;;;;;138.38;15.10;;;15.40;61.70;;;;;;5045164;28;20105;-61
2021/05/26 05:36:23;;;;;;;135.65;16.35;;;15.50;61.70;;;;;;5064348;28;20107;-61
2021/05/26 05:38:49;;;;;;;135.60;13.20;;;15.50;61.80;;;;;;5045061;28;20070;-61
2021/05/26 05:41:14;;;;;;;127.32;14.07;;;15.50;61.90;;;;;;5065146;28;20033;-61
2021/05/26 05:43:40;;;;;;;136.73;13.98;;;15.50;61.80;;;;;;5051095;28;20086;-61
2021/05/26 05:46:05;;;;;;;111.63;11.43;;;15.50;61.90;;;;;;5071577;28;20549;-60
2021/05/26 05:48:31;;;;;;;114.80;12.80;;;15.50;62.00;;;;;;5064368;28;20495;-61
2021/05/26 05:50:57;;;;;;;104.22;11.95;;;15.50;61.90;;;;;;5066254;28;20043;-61
2021/05/26 05:53:22;;;;;;;111.32;11.52;;;15.50;62.00;;;;;;5064867;28;20498;-61
2021/05/26 05:55:48;;;;;;;113.55;13.57;;;15.60;62.00;;;;;;5066745;28;20459;-61
2021/05/26 05:58:14;;;;;;;109.13;13.73;;;15.60;62.00;;;;;;5045202;28;20475;-60
2021/05/26 06:00:39;;;;;;;114.65;12.00;;;15.60;62.00;;;;;;5067090;28;20024;-60
2021/05/26 06:03:05;;;;;;;81.20;11.88;;;15.60;62.10;;;;;;5066781;28;20103;-62
2021/05/26 06:05:31;;;;;;;84.03;10.35;;;15.60;61.90;;;;;;5066085;28;20165;-61
2021/05/26 06:07:57;;;;;;;113.03;11.05;;;15.60;61.80;;;;;;5065982;28;20048;-61
2021/05/26 06:10:23;;;;;;;90.35;12.85;;;15.60;61.80;;;;;;5066170;28;20514;-61
2021/05/26 06:12:49;;;;;;;99.18;9.98;;;15.60;61.80;;;;;;5062935;28;20488;-61
2021/05/26 06:15:15;;;;;;;91.25;9.80;;;15.60;61.70;;;;;;5066572;28;20119;-61
2021/05/26 06:17:41;;;;;;;74.57;8.95;;;15.70;61.80;;;;;;5023770;28;20112;-61
2021/05/26 06:20:07;;;;;;;83.75;9.35;;;15.70;61.80;;;;;;5068960;28;20021;-61
2021/05/26 06:22:33;;;;;;;80.13;9.68;;;15.70;61.90;;;;;;5051852;28;20229;-62
2021/05/26 06:24:58;;;;;;;69.43;9.02;;;15.70;61.90;;;;;;5056444;28;20060;-61
2021/05/26 06:27:24;;;;;;;84.53;9.55;;;15.70;62.00;;;;;;5071547;28;20024;-61
2021/05/26 06:29:49;;;;;;;99.45;11.30;;;15.70;62.00;;;;;;5058540;28;20111;-61
2021/05/26 06:32:15;;;;;;;87.45;9.07;;;15.70;62.00;;;;;;5053706;28;20460;-61
2021/05/26 06:34:40;;;;;;;83.03;9.57;;;15.80;62.20;;;;;;5070406;28;20035;-64
2021/05/26 06:37:06;;;;;;;74.97;9.52;;;15.80;62.30;;;;;;5056355;28;20059;-61
2021/05/26 06:39:32;;;;;;;60.30;8.18;;;15.80;62.10;;;;;;5069740;28;20100;-61
2021/05/26 06:41:57;;;;;;;82.97;9.15;;;15.80;62.40;;;;;;5055590;28;20163;-61
2021/05/26 06:44:23;;;;;;;83.38;9.60;;;15.80;62.40;;;;;;5049575;28;20029;-61
2021/05/26 06:46:48;;;;;;;82.90;9.13;;;15.80;62.30;;;;;;5036541;28;20035;-61
2021/05/26 06:49:14;;;;;;;63.40;9.85;;;15.80;62.50;;;;;;5052149;28;20037;-61
2021/05/26 06:51:39;;;;;;;54.55;7.72;;;15.90;62.80;;;;;;5078989;28;20040;-61
2021/05/26 06:54:05;;;;;;;60.72;7.70;;;15.90;62.90;;;;;;5035607;28;20107;-61
2021/05/26 06:56:31;;;;;;;63.45;8.23;;;15.90;62.70;;;;;;5067645;28;20024;-61
2021/05/26 06:58:56;;;;;;;69.05;8.05;;;16.00;62.60;;;;;;5051829;28;20036;-61
2021/05/26 07:01:22;;;;;;;57.05;7.07;;;16.00;62.60;;;;;;5068626;28;20052;-61
2021/05/26 07:03:49;;;;;;;54.88;6.95;;;16.00;63.30;;;;;;5068581;28;20392;-61
2021/05/26 07:06:14;;;;;;;58.42;5.75;;;16.00;62.60;;;;;;5053988;28;20066;-61
2021/05/26 07:08:40;;;;;;;49.55;5.75;;;16.10;63.40;;;;;;5043190;28;20072;-60
2021/05/26 07:11:05;;;;;;;38.38;4.78;;;16.00;62.70;;;;;;5068533;28;20060;-61
2021/05/26 07:13:31;;;;;;;42.00;4.60;;;16.00;62.90;;;;;;5069530;28;20031;-61
2021/05/26 07:15:56;;;;;;;25.40;3.40;;;15.90;62.80;;;;;;5067375;28;20036;-61
2021/05/26 07:18:22;;;;;;;29.60;2.97;;;16.00;63.20;;;;;;5077404;28;20078;-61
2021/05/26 07:20:48;;;;;;;20.52;3.10;;;15.90;62.80;;;;;;5078814;28;20044;-61
2021/05/26 07:23:14;;;;;;;18.10;3.10;;;15.90;63.00;;;;;;5052651;28;20064;-60
2021/05/26 07:25:39;;;;;;;12.90;2.78;;;15.90;63.10;;;;;;5053410;28;20110;-61
2021/05/26 07:28:05;;;;;;;24.05;2.97;;;15.90;63.10;;;;;;5066153;28;20029;-61
2021/05/26 07:30:30;;;;;;;16.02;2.55;;;15.90;63.20;;;;;;5057361;28;20741;-61
2021/05/26 07:32:56;;;;;;;22.75;2.60;;;15.90;63.30;;;;;;5056518;28;20074;-60
2021/05/26 07:35:22;;;;;;;9.40;2.38;;;15.90;63.30;;;;;;5061485;28;20108;-60
2021/05/26 07:37:47;;;;;;;12.80;2.30;;;15.90;63.30;;;;;;5067954;28;20099;-61
2021/05/26 07:40:13;;;;;;;32.90;4.65;;;15.90;63.20;;;;;;5078322;28;20028;-62
2021/05/26 07:42:39;;;;;;;23.70;3.05;;;15.90;63.20;;;;;;5051983;28;20056;-61
2021/05/26 07:45:05;;;;;;;14.82;2.33;;;15.90;63.30;;;;;;5055544;28;20024;-60
2021/05/26 07:47:30;;;;;;;24.80;2.55;;;15.90;63.30;;;;;;5050018;28;20475;-60
2021/05/26 07:49:56;;;;;;;16.63;2.45;;;15.90;63.50;;;;;;5059316;28;20063;-61
2021/05/26 07:52:22;;;;;;;10.00;2.13;;;15.90;63.40;;;;;;5039594;28;20190;-60
2021/05/26 07:54:48;;;;;;;17.15;2.13;;;16.00;63.50;;;;;;5056608;28;20024;-61
2021/05/26 07:57:13;;;;;;;11.77;1.65;;;16.00;63.50;;;;;;5045943;28;20111;-61
2021/05/26 07:59:39;;;;;;;19.90;2.20;;;16.00;63.40;;;;;;5058601;28;20605;-61
2021/05/26 08:02:05;;;;;;;23.45;2.40;;;16.00;63.60;;;;;;5058531;28;20511;-61
2021/05/26 08:04:30;;;;;;;10.15;1.50;;;16.00;63.60;;;;;;5072734;28;20629;-60
2021/05/26 08:06:55;;;;;;;12.35;1.80;;;16.00;63.50;;;;;;5052050;28;20491;-61
2021/05/26 08:09:21;;;;;;;7.00;1.60;;;16.00;63.60;;;;;;5074572;28;20028;-61
2021/05/26 08:11:47;;;;;;;14.50;2.85;;;16.00;63.50;;;;;;5072528;28;20020;-61
2021/05/26 08:14:12;;;;;;;7.55;1.48;;;16.00;63.20;;;;;;5067994;28;20025;-61
2021/05/26 08:16:38;;;;;;;10.95;1.73;;;16.00;63.30;;;;;;5048138;28;20574;-61
2021/05/26 08:19:03;;;;;;;11.70;1.73;;;16.10;63.20;;;;;;5052359;28;20031;-61
2021/05/26 08:21:29;;;;;;;11.13;2.03;;;16.10;63.10;;;;;;5072035;28;20132;-61
2021/05/26 08:23:54;;;;;;;6.10;1.73;;;16.10;62.90;;;;;;5073880;28;20357;-61
2021/05/26 08:26:23;;;;;;;11.27;1.73;;;16.10;63.10;;;;;;5047202;28;20033;-61
2021/05/26 08:28:52;;;;;;;10.05;1.98;;;16.10;63.10;;;;;;5050628;28;20893;-61
2021/05/26 08:31:18;;;;;;;11.40;1.88;;;16.10;63.10;;;;;;5068204;28;20028;-61
2021/05/26 08:33:44;;;;;;;21.63;1.98;;;16.20;63.10;;;;;;5052500;28;20033;-61
2021/05/26 08:36:09;;;;;;;10.65;1.65;;;16.20;62.90;;;;;;5064824;28;20027;-60
2021/05/26 08:38:35;;;;;;;10.45;1.95;;;16.20;62.90;;;;;;5044466;28;20025;-61
2021/05/26 08:41:07;;;;;;;15.85;1.92;;;16.20;62.60;;;;;;5066269;28;20036;-61
2021/05/26 08:43:40;;;;;;;7.45;1.73;;;16.20;62.50;;;;;;5068207;28;20044;-61
2021/05/26 08:46:06;;;;;;;10.52;1.80;;;16.20;62.40;;;;;;5063812;28;20436;-61
2021/05/26 08:48:32;;;;;;;13.30;1.73;;;16.30;62.70;;;;;;5032105;28;20154;-61
2021/05/26 08:50:58;;;;;;;18.95;2.25;;;16.30;62.70;;;;;;5057616;28;20037;-61
2021/05/26 08:53:24;;;;;;;27.55;3.42;;;16.30;62.70;;;;;;5047086;28;20096;-61
2021/05/26 08:55:49;;;;;;;25.20;2.95;;;16.30;62.90;;;;;;5055791;28;20028;-61
2021/05/26 08:58:15;;;;;;;22.42;2.80;;;16.40;62.90;;;;;;5050958;28;20020;-61
2021/05/26 09:00:40;;;;;;;21.85;2.85;;;16.40;62.80;;;;;;5065838;28;20036;-60
2021/05/26 09:03:06;;;;;;;25.58;3.33;;;16.50;63.00;;;;;;5064207;28;20024;-61
2021/05/26 09:05:33;;;;;;;22.20;3.20;;;16.50;63.10;;;;;;5049598;28;20036;-61
2021/05/26 09:08:00;;;;;;;11.63;2.38;;;16.50;63.10;;;;;;5039739;28;20435;-61
2021/05/26 09:10:26;;;;;;;17.98;3.30;;;16.60;62.80;;;;;;5044807;28;20090;-61
2021/05/26 09:12:56;;;;;;;28.90;2.88;;;16.60;63.00;;;;;;5059032;28;20019;-61
2021/05/26 09:15:21;;;;;;;40.45;4.18;;;16.70;63.10;;;;;;5033907;28;20031;-61
2021/05/26 09:17:54;;;;;;;25.48;3.40;;;16.70;63.10;;;;;;5059046;28;20277;-61
2021/05/26 09:20:32;;;;;;;26.48;3.55;;;16.80;63.10;;;;;;5070145;28;20495;-61
2021/05/26 09:23:03;;;;;;;35.78;3.35;;;16.90;63.20;;;;;;5040713;28;20048;-61
2021/05/26 09:25:29;;;;;;;25.85;3.47;;;16.90;63.10;;;;;;5054182;28;20031;-61
2021/05/26 09:28:21;;;;;;;21.27;3.20;;;17.00;63.20;;;;;;5039231;28;20757;-60
2021/05/26 09:31:13;;;;;;;19.67;2.20;;;17.00;62.90;;;;;;5041622;28;20119;-61
2021/05/26 09:33:44;;;;;;;13.10;1.98;;;17.00;62.80;;;;;;5070792;28;20048;-60
2021/05/26 09:36:26;;;;;;;11.80;2.53;;;17.00;62.70;;;;;;5077085;28;20060;-60
2021/05/26 09:39:04;;;;;;;23.27;3.33;;;17.10;62.50;;;;;;5069732;28;20017;-61
2021/05/26 09:41:30;;;;;;;18.50;2.85;;;17.10;62.20;;;;;;5068759;28;20400;-61
2021/05/26 09:44:12;;;;;;;33.53;3.50;;;17.20;62.20;;;;;;5053246;28;20013;-60
2021/05/26 09:46:42;;;;;;;23.35;3.17;;;17.20;62.50;;;;;;5045597;28;20033;-61
2021/05/26 09:49:13;;;;;;;16.85;2.47;;;17.30;62.20;;;;;;5052529;28;20100;-61
2021/05/26 09:51:40;;;;;;;19.98;2.13;;;17.30;62.00;;;;;;5062381;28;20028;-61
2021/05/26 09:54:09;;;;;;;12.10;2.33;;;17.50;61.50;;;;;;5038741;28;20028;-61
2021/05/26 09:56:35;;;;;;;12.77;1.90;;;17.30;61.00;;;;;;5044433;28;20035;-61
2021/05/26 09:59:02;;;;;;;10.30;2.13;;;17.40;60.80;;;;;;5040426;28;20510;-61
2021/05/26 10:01:28;;;;;;;5.88;1.98;;;17.40;60.70;;;;;;5047442;28;20012;-61
2021/05/26 10:03:53;;;;;;;15.13;2.28;;;17.40;60.10;;;;;;5065649;28;20024;-61
2021/05/26 10:06:19;;;;;;;16.15;1.77;;;17.50;59.90;;;;;;5072455;28;20154;-61
2021/05/26 10:08:45;;;;;;;11.27;1.88;;;17.50;59.20;;;;;;5051522;28;20027;-61
2021/05/26 10:11:10;;;;;;;13.48;1.90;;;17.50;59.10;;;;;;5029416;28;20032;-61
2021/05/26 10:13:36;;;;;;;8.27;2.10;;;17.50;58.80;;;;;;5024908;28;20044;-61
2021/05/26 10:16:02;;;;;;;20.42;2.08;;;17.50;58.40;;;;;;5050369;28;20028;-61
2021/05/26 10:18:31;;;;;;;25.30;2.63;;;17.60;58.50;;;;;;5070178;28;20039;-61
2021/05/26 10:20:56;;;;;;;20.95;3.25;;;17.60;58.50;;;;;;5051006;28;20032;-61
2021/05/26 10:23:22;;;;;;;17.20;2.17;;;17.70;58.50;;;;;;5038094;28;20035;-61
2021/05/26 10:25:48;;;;;;;10.88;1.85;;;17.70;58.00;;;;;;5060453;28;20044;-61
2021/05/26 10:28:39;;;;;;;10.70;2.20;;;17.70;57.50;;;;;;5075360;28;20392;-61
2021/05/26 10:31:05;;;;;;;14.95;2.17;;;17.80;57.50;;;;;;5051836;28;20037;-61
2021/05/26 10:33:43;;;;;;;32.15;4.57;;;17.80;57.50;;;;;;5067147;28;20566;-61
2021/05/26 10:36:12;;;;;;;16.95;1.73;;;17.80;57.70;;;;;;5075437;28;20052;-61
2021/05/26 10:38:59;;;;;;;7.85;1.88;;;17.90;57.50;;;;;;5048607;28;20043;-61
2021/05/26 10:41:25;;;;;;;11.48;2.03;;;17.90;57.50;;;;;;5047897;28;20031;-61
2021/05/26 10:43:55;;;;;;;13.68;2.20;;;17.90;57.50;;;;;;5049547;28;20079;-61
2021/05/26 10:46:41;;;;;;;9.38;1.88;;;17.90;57.40;;;;;;5071379;28;20086;-61
2021/05/26 10:49:08;;;;;;;10.73;1.80;;;17.90;57.30;;;;;;5063127;28;20111;-61
2021/05/26 10:52:06;;;;;;;12.63;2.15;;;18.00;57.30;;;;;;5052780;28;21044;-61
2021/05/26 10:54:41;;;;;;;33.20;4.55;;;18.10;57.60;;;;;;5040155;28;20059;-61
2021/05/26 10:57:07;;;;;;;32.97;3.70;;;18.10;57.50;;;;;;5067284;28;20028;-61
2021/05/26 10:59:33;;;;;;;27.90;2.53;;;18.10;58.10;;;;;;5062523;28;20024;-61
2021/05/26 11:04:30;;;;;;;14.57;2.28;;;18.20;57.90;;;;;;5072167;28;20045;-61
2021/05/26 11:07:15;;;;;;;10.80;1.85;;;18.20;57.80;;;;;;5040833;28;20020;-61
2021/05/26 11:10:01;;;;;;;11.85;1.83;;;18.30;57.80;;;;;;5077986;28;20111;-61
2021/05/26 11:12:27;;;;;;;17.42;2.17;;;18.30;57.70;;;;;;5039025;28;20038;-61
2021/05/26 11:14:54;;;;;;;19.55;2.50;;;18.40;57.90;;;;;;5059483;28;20027;-61
2021/05/26 11:17:27;;;;;;;22.98;2.63;;;18.40;58.30;;;;;;5048790;28;20073;-61
2021/05/26 11:20:13;;;;;;;15.45;2.05;;;18.40;58.40;;;;;;5068817;28;20024;-61
2021/05/26 11:22:38;;;;;;;15.90;2.40;;;18.50;59.30;;;;;;5039141;28;20029;-62
2021/05/26 11:25:07;;;;;;;16.25;2.13;;;18.50;58.60;;;;;;5029551;28;21369;-61
2021/05/26 11:27:32;;;;;;;18.00;1.90;;;18.60;58.70;;;;;;5041097;28;20028;-61
2021/05/26 11:30:00;;;;;;;12.90;2.53;;;18.60;59.00;;;;;;5050191;28;20030;-62
2021/05/26 11:32:26;;;;;;;38.22;5.55;;;18.70;59.30;;;;;;5020134;28;20548;-61
2021/05/26 11:34:56;;;;;;;27.23;3.97;;;18.60;59.70;;;;;;5043250;28;20129;-61
2021/05/26 11:37:31;;;;;;;21.42;3.75;;;18.60;60.20;;;;;;5056609;28;20447;-61
2021/05/26 11:39:58;;;;;;;30.90;4.22;;;18.70;60.20;;;;;;5052029;28;20032;-62
2021/05/26 11:42:28;;;;;;;25.63;3.70;;;18.70;60.60;;;;;;5035717;28;20341;-61
2021/05/26 11:44:55;;;;;;;14.73;3.05;;;18.80;60.90;;;;;;5039892;28;20067;-61
2021/05/26 11:47:30;;;;;;;20.65;4.05;;;18.70;60.80;;;;;;5049938;28;20029;-61
2021/05/26 11:49:58;;;;;;;53.78;6.20;;;18.80;61.30;;;;;;5040988;28;20064;-61
2021/05/26 11:52:23;;;;;;;57.70;6.75;;;18.70;61.70;;;;;;5011867;28;20523;-61
2021/05/26 11:54:59;;;;;;;23.67;3.97;;;18.70;61.90;;;;;;5035286;28;20030;-61
2021/05/26 11:57:41;;;;;;;38.30;6.85;;;18.70;62.30;;;;;;5048484;28;20031;-61
2021/05/26 12:00:19;;;;;;;44.78;4.55;;;18.70;62.60;;;;;;5019604;28;20017;-61
2021/05/26 12:02:58;;;;;;;49.88;5.32;;;18.60;62.70;;;;;;5025133;28;20504;-61
2021/05/26 12:05:36;;;;;;;44.20;5.35;;;18.60;62.80;;;;;;5025110;28;20032;-61
2021/05/26 12:08:01;;;;;;;27.45;4.45;;;18.70;62.80;;;;;;5053583;28;20055;-61
2021/05/26 12:10:28;;;;;;;16.20;3.90;;;18.60;62.90;;;;;;5027303;28;20895;-61
2021/05/26 12:13:03;;;;;;;31.35;3.83;;;18.70;63.00;;;;;;5050442;28;20106;-61
2021/05/26 12:15:28;;;;;;;82.75;8.45;;;18.60;63.40;;;;;;5053938;28;20027;-61
2021/05/26 12:17:55;;;;;;;30.23;4.78;;;18.60;63.60;;;;;;5036926;28;20036;-61
2021/05/26 12:20:21;;;;;;;42.55;5.15;;;18.60;63.70;;;;;;5044631;28;20495;-60
2021/05/26 12:22:49;;;;;;;373.30;33.65;;;18.70;63.60;;;;;;5060289;28;20158;-62
2021/05/26 12:25:14;;;;;;;32.80;4.65;;;18.60;64.00;;;;;;5067246;28;20916;-61
2021/05/26 12:27:45;;;;;;;33.65;4.82;;;18.70;64.20;;;;;;5073012;28;20072;-61
2021/05/26 12:30:26;;;;;;;42.78;5.45;;;18.70;63.10;;;;;;5051911;28;20032;-61
2021/05/26 12:32:53;;;;;;;52.53;7.07;;;18.70;64.00;;;;;;5050930;28;20033;-61
2021/05/26 12:35:19;;;;;;;48.83;5.78;;;18.70;64.20;;;;;;5037913;28;20629;-61
2021/05/26 12:37:47;;;;;;;38.97;5.65;;;18.70;64.20;;;;;;5052380;28;20435;-61
2021/05/26 12:40:27;;;;;;;47.58;6.32;;;18.70;64.30;;;;;;5049283;28;20503;-60
2021/05/26 12:42:54;;;;;;;65.55;7.78;;;18.80;64.30;;;;;;5069030;28;20055;-62